Flight Track Log - Related Links

Times and Time Zones

All times are in EDT time to prevent confusion due to time zone crossing. See the N233PC flight status page for this flight to view local times or setup timezone preferences in your user account.

Time Position Orientation Groundspeed Altitude Reporting Facility
EDT Latitude Longitude Course Direction KTS MPH feet Rate Location/Type
Sun 11:11:34 AM 26.7350 -79.5269 125° Southeast 165 190 6,000  Level Miami Center
Sun 11:12:34 AM 26.7461 -79.4783 76° East 160 184 7,000 300 Climbing Miami Center
Sun 11:13:34 AM 26.7325 -79.4339 109° East 143 165 6,600  Descending Miami Center
Sun 11:14:34 AM 26.7142 -79.3964 119° Southeast 141 162 7,000 400 Climbing Miami Center
Sun 11:15:34 AM 26.6939 -79.3586 121° Southeast 131 151 7,400 350 Climbing Miami Center
Sun 11:16:34 AM 26.6800 -79.3233 114° Southeast 136 157 7,700 350 Climbing Miami Center
Sun 11:17:00 AM 25.7942 -79.1985 125° Southeast  Level Estimated
Sun 11:17:34 AM 26.6511 -79.2972 141° Southeast 129 148 8,100  Level Miami Center
Sun 11:18:34 AM 26.6242 -79.2806 151° Southeast 123 142 8,500 350 Climbing Miami Center
Sun 11:19:34 AM 26.5953 -79.2614 149° Southeast 123 142 8,800 200 Climbing Miami Center
Sun 11:20:34 AM 26.5644 -79.2397 148° Southeast 123 142 8,900 100 Climbing Miami Center
Sun 11:21:34 AM 26.5333 -79.2158 146° Southeast 130 150 9,000 50 Climbing Miami Center
Sun 11:22:34 AM 26.5006 -79.1850 140° Southeast 136 157 9,000 -50 Level Miami Center
Sun 11:23:34 AM 26.4719 -79.1497 132° Southeast 149 171 8,900 -50 Descending Miami Center
Sun 11:24:34 AM 26.4472 -79.1144 128° Southeast 149 171 8,900  Level Miami Center
Sun 11:25:34 AM 26.4186 -79.0836 136° Southeast 144 166 8,900  Level Miami Center
Sun 11:26:34 AM 26.3878 -79.0508 136° Southeast 144 166 8,900  Level Miami Center
Sun 11:27:34 AM 26.3611 -79.0178 132° Southeast 144 166 8,900  Level Miami Center
Sun 11:28:34 AM 26.3281 -78.9822 136° Southeast 151 174 8,900  Level Miami Center
Sun 11:29:34 AM 26.3014 -78.9472 130° Southeast 145 167 8,900  Level Miami Center
Sun 11:30:34 AM 26.2747 -78.9164 134° Southeast 146 168 8,900  Level Miami Center
Sun 11:31:34 AM 26.2458 -78.8836 134° Southeast 141 162 8,900  Level Miami Center
Sun 11:32:34 AM 26.2172 -78.8483 132° Southeast 147 169 8,900  Level Miami Center
Sun 11:33:34 AM 26.1864 -78.8131 134° Southeast 147 169 8,900  Level Miami Center
Sun 11:34:34 AM 26.1575 -78.7803 134° Southeast 147 169 8,900  Level Miami Center
Sun 11:35:34 AM 26.1267 -78.7472 136° Southeast 147 169 8,900  Level Miami Center
Sun 11:36:34 AM 26.1019 -78.7144 130° Southeast 141 162 8,900  Level Miami Center
Sun 11:37:34 AM 26.0711 -78.6794 134° Southeast 146 168 8,900  Level Miami Center
Sun 11:38:34 AM 26.0403 -78.6372 129° Southeast 153 176 8,900  Level Miami Center
Sun 11:39:34 AM 26.0114 -78.6114 141° Southeast 153 176 8,900  Level Miami Center
Sun 11:40:34 AM 25.9783 -78.5808 140° Southeast 153 176 8,900  Level Miami Center
Sun 11:41:34 AM 25.9514 -78.5481 132° Southeast 153 176 8,900 50 Level Miami Center
Sun 11:42:34 AM 25.9206 -78.5153 136° Southeast 153 176 9,000  Climbing Miami Center
Sun 11:43:34 AM 25.8917 -78.4828 135° Southeast 148 170 8,900 -50 Descending Miami Center
Sun 11:44:34 AM 25.8628 -78.4475 132° Southeast 143 165 8,900  Level Miami Center
Sun 11:45:34 AM 25.8358 -78.4150 133° Southeast 143 165 8,900  Level Miami Center
Sun 11:46:34 AM 25.8069 -78.3844 136° Southeast 143 165 8,900  Level Miami Center
Sun 11:47:34 AM 25.7781 -78.3519 135° Southeast 148 170 8,900  Level Miami Center
Sun 11:48:34 AM 25.7511 -78.3147 129° Southeast 148 170 8,900 50 Level Miami Center
Sun 11:49:34 AM 25.7222 -78.2819 134° Southeast 143 165 9,000 50 Climbing Miami Center
Sun 11:50:34 AM 25.6911 -78.2517 139° Southeast 143 165 9,000  Level Miami Center
Sun 11:51:34 AM 25.6622 -78.2192 135° Southeast 143 165 9,000  Level Miami Center
Sun 11:52:34 AM 25.6356 -78.1864 132° Southeast 143 165 9,000  Level Miami Center
Sun 11:53:34 AM 25.6064 -78.1539 135° Southeast 143 165 9,000  Level Miami Center
Sun 11:54:34 AM 25.5775 -78.1214 135° Southeast 143 165 9,000  Level Miami Center
Sun 11:55:34 AM 25.5506 -78.0864 130° Southeast 143 165 9,000  Level Miami Center
Sun 11:57:34 AM 25.4969 -78.0192 131° Southeast 143 165 9,000  Level Miami Center
Sun 11:58:34 AM 25.4658 -77.9867 137° Southeast 143 165 9,000  Level Miami Center
Sun 11:59:34 AM 25.4347 -77.9542 137° Southeast 143 165 9,000  Level Miami Center
Sun 12:01:00 PM 25.3940 -77.9067 134° Southeast  Level FlightAware Approximate
Sun 12:08:00 PM 25.1935 -77.6772 134° Southeast  Level FlightAware Approximate
Sun 12:09:00 PM 25.1647 -77.6446 134° Southeast  Level FlightAware Approximate
Sun 12:10:00 PM 25.1359 -77.6120 134° Southeast  Level FlightAware Approximate
Sun 12:11:00 PM 25.1070 -77.5795 134° Southeast  Level FlightAware Approximate
Sun 12:12:00 PM 25.0782 -77.5470 134° Southeast  Level FlightAware Approximate
Sun 12:13:00 PM 25.0494 -77.5145 134° Southeast  Level FlightAware Approximate
Sun 12:14:00 PM 25.0205 -77.4820 134° Southeast  Level FlightAware Approximate
Sun 12:15:00 PM 24.9917 -77.4495 134° Southeast  Level FlightAware Approximate
Sun 12:16:00 PM 24.9628 -77.4171 134° Southeast  Level FlightAware Approximate
Sun 12:17:00 PM 24.9340 -77.3846 134° Southeast  Level FlightAware Approximate
Sun 12:18:00 PM 24.9051 -77.3522 134° Southeast  Level FlightAware Approximate
Sun 12:19:00 PM 24.8762 -77.3198 134° Southeast  Level FlightAware Approximate
Sun 12:20:00 PM 24.8473 -77.2874 134° Southeast  Level FlightAware Approximate
Sun 12:20:34 PM 24.8236 -77.2664 135° Southeast 168 193 9,000  Level Miami Center
Sun 12:21:00 PM 24.8184 -77.2550 135° Southeast  Level FlightAware Approximate
Sun 12:21:34 PM 24.7925 -77.2367 139° Southeast 163 188 9,000  Level Miami Center
Sun 12:22:00 PM 24.7895 -77.2226 135° Southeast  Level FlightAware Approximate
Sun 12:22:34 PM 24.7653 -77.2044 133° Southeast 152 175 9,000  Level Miami Center
Sun 12:23:00 PM 24.7606 -77.1903 135° Southeast  Level FlightAware Approximate
Sun 12:24:00 PM 24.7317 -77.1579 135° Southeast  Level FlightAware Approximate
Sun 12:24:34 PM 24.7089 -77.1381 133° Southeast 147 169 9,000  Level Miami Center
Sun 12:25:34 PM 24.6778 -77.1058 137° Southeast 147 169 9,000  Level Miami Center
Sun 12:26:34 PM 24.6486 -77.0714 133° Southeast 147 169 9,000  Level Miami Center
Sun 12:27:34 PM 24.6192 -77.0417 137° Southeast 147 169 9,000 -50 Level Miami Center
Sun 12:28:34 PM 24.5900 -77.0075 133° Southeast 147 169 8,900 -150 Descending Miami Center
Sun 12:29:34 PM 24.5589 -76.9753 137° Southeast 147 169 8,700 -200 Descending Miami Center
Sun 12:30:34 PM 24.5294 -76.9411 133° Southeast 147 169 8,500 -200 Descending Miami Center
Sun 12:32:34 PM 24.4669 -76.8703 134° Southeast 147 169 8,100 -200 Descending Miami Center
Sun 12:33:34 PM 24.4356 -76.8361 135° Southeast 147 169 7,900 -150 Descending Miami Center
Sun 12:34:34 PM 24.4061 -76.8042 135° Southeast 147 169 7,800 -200 Descending Miami Center
Sun 12:35:34 PM 24.3747 -76.7697 135° Southeast 147 169 7,500 -250 Descending Miami Center
Sun 12:36:34 PM 24.3436 -76.7356 135° Southeast 147 169 7,300 -200 Descending Miami Center
Sun 12:37:34 PM 24.3122 -76.7014 135° Southeast 147 169 7,100 -150 Descending Miami Center
Sun 12:38:34 PM 24.2828 -76.6697 136° Southeast 147 169 7,000 -50 Descending Miami Center
Sun 12:39:34 PM 24.2536 -76.6333 131° Southeast 152 175 7,000  Level Miami Center

Login

Don't have an account? Register now (free) for customized features, flight alerts, and more!